Time;durP1;ratioP1;P1;durP2;ratioP2;P2;SDS_P1;SDS_P2;PMS_P1;PMS_P2;Temp;Humidity;BMP_temperature;BMP_pressure;BME280_temperature;BME280_humidity;BME280_pressure;Samples;Min_cycle;Max_cycle;Signal;HPM_P1;HPM_P2
2023/06/10 00:01:49;;;;;;;18.23;10.80;;;19.70;99.90;;;;;;4954511;28;20034;-77
2023/06/10 00:04:16;;;;;;;17.55;9.82;;;19.70;99.90;;;;;;4962801;28;20026;-75
2023/06/10 00:06:43;;;;;;;14.13;9.63;;;19.70;99.90;;;;;;4956987;28;20509;-77
2023/06/10 00:09:13;;;;;;;22.65;10.10;;;19.70;99.90;;;;;;4957880;28;20050;-78
2023/06/10 00:11:40;;;;;;;14.85;9.15;;;19.60;99.90;;;;;;4954123;28;20533;-77
2023/06/10 00:14:06;;;;;;;17.48;9.70;;;19.50;99.90;;;;;;4954249;28;20495;-75
2023/06/10 00:16:32;;;;;;;19.95;11.93;;;19.50;99.90;;;;;;4954048;28;20026;-75
2023/06/10 00:19:03;;;;;;;16.98;11.15;;;19.50;99.90;;;;;;4954492;28;20027;-76
2023/06/10 00:21:39;;;;;;;23.35;11.30;;;19.40;99.90;;;;;;4953337;28;20023;-79
2023/06/10 00:24:11;;;;;;;17.98;11.32;;;19.40;99.90;;;;;;4954171;29;20031;-79
2023/06/10 00:26:38;;;;;;;16.90;10.45;;;19.30;99.90;;;;;;4953754;28;20035;-78
2023/06/10 00:29:05;;;;;;;20.45;11.43;;;19.30;99.90;;;;;;4954340;28;20070;-78
2023/06/10 00:31:31;;;;;;;18.27;11.40;;;19.30;99.90;;;;;;4953695;28;20505;-78
2023/06/10 00:33:58;;;;;;;16.42;10.27;;;19.30;99.90;;;;;;4952432;28;20035;-79
2023/06/10 00:36:24;;;;;;;17.05;10.40;;;19.30;99.90;;;;;;4932662;29;20038;-75
2023/06/10 00:38:50;;;;;;;19.10;12.52;;;19.30;99.90;;;;;;4953709;28;20399;-77
2023/06/10 00:41:16;;;;;;;19.55;11.38;;;19.20;99.90;;;;;;4955277;28;20168;-75
2023/06/10 00:43:42;;;;;;;20.25;12.10;;;19.20;99.90;;;;;;4948575;28;20031;-78
2023/06/10 00:46:08;;;;;;;16.95;11.40;;;19.30;99.90;;;;;;4922019;29;20039;-74
2023/06/10 00:48:34;;;;;;;17.10;11.57;;;19.40;99.90;;;;;;4933093;29;20138;-77
2023/06/10 00:51:00;;;;;;;19.00;11.48;;;19.40;99.90;;;;;;4934357;29;20032;-76
2023/06/10 00:53:27;;;;;;;21.67;11.38;;;19.40;99.90;;;;;;4938931;29;20046;-76
2023/06/10 00:55:53;;;;;;;17.20;10.82;;;19.40;99.90;;;;;;4937249;29;20019;-78
2023/06/10 00:58:19;;;;;;;17.80;10.60;;;19.30;99.90;;;;;;4935927;29;20179;-79
2023/06/10 01:00:46;;;;;;;17.48;9.35;;;19.20;99.90;;;;;;4935772;29;20035;-78
2023/06/10 01:03:12;;;;;;;17.05;10.75;;;19.20;99.90;;;;;;4919926;29;20020;-77
2023/06/10 01:05:41;;;;;;;18.23;11.65;;;19.10;99.90;;;;;;4937135;29;20030;-78
2023/06/10 01:08:38;;;;;;;20.02;10.32;;;19.10;99.90;;;;;;4936690;29;20058;-78
2023/06/10 01:11:10;;;;;;;17.17;10.45;;;19.10;99.90;;;;;;4898042;29;20481;-79
2023/06/10 01:13:37;;;;;;;;;;;19.20;99.90;;;;;;4897077;29;20468;-76
2023/06/10 01:16:04;;;;;;;16.65;11.00;;;19.20;99.90;;;;;;4897510;29;19990;-79
2023/06/10 01:18:31;;;;;;;19.98;11.23;;;19.20;99.90;;;;;;4896707;29;20112;-79
2023/06/10 01:20:57;;;;;;;17.92;11.00;;;19.20;99.90;;;;;;4881033;29;20025;-76
2023/06/10 01:23:23;;;;;;;18.10;10.52;;;19.20;99.90;;;;;;4896633;29;20397;-76
2023/06/10 01:26:11;;;;;;;15.88;9.77;;;19.10;99.90;;;;;;4896949;29;20025;-76
2023/06/10 01:28:48;;;;;;;16.55;9.30;;;19.00;99.90;;;;;;4896664;29;20171;-79
2023/06/10 01:31:36;;;;;;;21.50;10.50;;;19.00;99.90;;;;;;4896455;29;20032;-79
2023/06/10 01:34:05;;;;;;;18.38;11.30;;;19.00;99.90;;;;;;4899762;29;20048;-78
2023/06/10 01:36:32;;;;;;;22.08;11.50;;;19.00;99.90;;;;;;4896642;29;20037;-76
2023/06/10 01:39:00;;;;;;;20.33;10.50;;;18.90;99.90;;;;;;4900400;29;20035;-76
2023/06/10 01:41:26;;;;;;;14.93;9.38;;;18.90;99.90;;;;;;4895912;29;20039;-78
2023/06/10 01:43:54;;;;;;;16.63;9.30;;;18.90;99.90;;;;;;4896515;29;20032;-80
2023/06/10 01:46:21;;;;;;;17.30;9.65;;;18.90;99.90;;;;;;4896583;29;20028;-75
2023/06/10 01:48:47;;;;;;;17.70;9.57;;;18.80;99.90;;;;;;4932136;29;20075;-76
2023/06/10 01:51:15;;;;;;;16.08;10.50;;;18.80;99.90;;;;;;4936290;29;20020;-76
2023/06/10 01:53:41;;;;;;;17.88;10.32;;;18.80;99.90;;;;;;4936380;29;20091;-77
2023/06/10 01:56:06;;;;;;;15.75;10.35;;;18.80;99.90;;;;;;4934697;29;20032;-80
2023/06/10 01:58:32;;;;;;;23.00;11.07;;;18.80;99.90;;;;;;4934968;29;20074;-78
2023/06/10 02:00:58;;;;;;;15.13;9.90;;;18.70;99.90;;;;;;4935872;29;20036;-76
2023/06/10 02:03:24;;;;;;;21.70;11.63;;;18.60;99.90;;;;;;4919068;29;20462;-78
2023/06/10 02:05:50;;;;;;;16.90;11.25;;;18.50;99.90;;;;;;4934606;29;20106;-78
2023/06/10 02:08:16;;;;;;;17.40;10.98;;;18.60;99.90;;;;;;4935697;29;20051;-75
2023/06/10 02:10:42;;;;;;;21.73;11.63;;;18.60;99.90;;;;;;4936017;29;20035;-80
2023/06/10 02:13:07;;;;;;;15.90;10.13;;;18.50;99.90;;;;;;4935597;29;20493;-77
2023/06/10 02:15:33;;;;;;;17.65;10.60;;;18.60;99.90;;;;;;4935878;29;20102;-74
2023/06/10 02:18:00;;;;;;;17.95;11.10;;;18.60;99.90;;;;;;4935867;28;20034;-80
2023/06/10 02:20:26;;;;;;;17.17;11.13;;;18.60;99.90;;;;;;4940081;29;20027;-77
2023/06/10 02:22:52;;;;;;;18.58;11.07;;;18.50;99.90;;;;;;4935623;29;20055;-75
2023/06/10 02:25:18;;;;;;;20.33;11.38;;;18.30;99.90;;;;;;4935705;29;20044;-77
2023/06/10 02:27:44;;;;;;;19.58;13.23;;;18.30;99.90;;;;;;4934363;29;20027;-77
2023/06/10 02:30:11;;;;;;;21.33;14.13;;;18.20;99.90;;;;;;4918581;29;20034;-78
2023/06/10 02:32:37;;;;;;;20.45;12.85;;;18.20;99.90;;;;;;4934990;29;20034;-76
2023/06/10 02:35:03;;;;;;;22.30;12.80;;;18.30;99.90;;;;;;4936480;29;20043;-77
2023/06/10 02:37:30;;;;;;;26.00;12.73;;;18.30;99.90;;;;;;4918133;29;20031;-78
2023/06/10 02:39:56;;;;;;;18.20;11.00;;;18.30;99.90;;;;;;4937615;29;20035;-77
2023/06/10 02:42:23;;;;;;;19.77;11.07;;;18.40;99.90;;;;;;4934317;29;20353;-77
2023/06/10 02:44:50;;;;;;;18.05;11.32;;;18.30;99.90;;;;;;4934874;29;20027;-75
2023/06/10 02:47:25;;;;;;;18.42;10.60;;;18.40;99.90;;;;;;4921921;29;20046;-79
2023/06/10 02:49:51;;;;;;;18.90;11.10;;;18.40;99.90;;;;;;4933731;29;20083;-75
2023/06/10 02:52:18;;;;;;;20.73;12.13;;;18.40;99.90;;;;;;4938100;29;20051;-78
2023/06/10 02:54:45;;;;;;;20.73;14.35;;;;;;;;;;4933810;29;20197;-74
2023/06/10 02:57:11;;;;;;;21.83;14.35;;;18.30;99.90;;;;;;4934163;29;20432;-75
2023/06/10 02:59:37;;;;;;;22.02;15.40;;;18.30;99.90;;;;;;4933763;29;20059;-73
2023/06/10 03:02:04;;;;;;;24.40;16.63;;;18.40;99.90;;;;;;4933705;29;20024;-78
2023/06/10 03:04:37;;;;;;;27.85;18.88;;;18.30;99.90;;;;;;4933618;29;20492;-74
2023/06/10 03:07:08;;;;;;;24.43;18.27;;;18.40;99.90;;;;;;4933308;29;20488;-73
2023/06/10 03:09:34;;;;;;;28.98;18.30;;;18.40;99.90;;;;;;4933694;29;20052;-76
2023/06/10 03:12:02;;;;;;;27.63;18.35;;;18.40;99.90;;;;;;4933499;29;20028;-79
2023/06/10 03:14:34;;;;;;;28.50;19.02;;;18.50;99.90;;;;;;4932871;29;20036;-79
2023/06/10 03:17:01;;;;;;;26.10;18.40;;;18.50;99.90;;;;;;4921552;29;20028;-79
2023/06/10 03:19:27;;;;;;;28.58;18.35;;;18.50;99.90;;;;;;4933004;29;20131;-78
2023/06/10 03:22:14;;;;;;;26.95;19.02;;;18.50;99.90;;;;;;4933265;29;20460;-79
2023/06/10 03:24:46;;;;;;;28.10;18.48;;;18.50;99.90;;;;;;4917412;29;20027;-78
2023/06/10 03:27:14;;;;;;;23.63;17.27;;;18.50;99.90;;;;;;4920551;29;20110;-78
2023/06/10 03:29:43;;;;;;;23.95;16.85;;;18.40;99.90;;;;;;4902277;29;20031;-78
2023/06/10 03:32:09;;;;;;;24.02;16.50;;;18.60;99.90;;;;;;4932988;29;20067;-79
2023/06/10 03:34:38;;;;;;;26.05;17.70;;;18.60;99.90;;;;;;4932925;29;20089;-78
2023/06/10 03:37:04;;;;;;;24.55;17.25;;;18.70;99.90;;;;;;4934383;29;20424;-76
2023/06/10 03:39:32;;;;;;;27.40;17.80;;;18.70;99.90;;;;;;4920571;29;20490;-80
2023/06/10 03:41:59;;;;;;;24.35;17.63;;;18.80;99.90;;;;;;4935205;29;20024;-79
2023/06/10 03:44:26;;;;;;;24.45;16.08;;;18.60;99.90;;;;;;4933253;29;20028;-76
2023/06/10 03:46:52;;;;;;;23.10;16.35;;;18.60;99.90;;;;;;4936909;29;20114;-77
2023/06/10 03:49:18;;;;;;;26.65;16.88;;;18.60;99.90;;;;;;4932657;29;20027;-75
2023/06/10 03:51:44;;;;;;;23.63;17.02;;;18.70;99.90;;;;;;4932877;29;20414;-77
2023/06/10 03:54:10;;;;;;;24.60;17.48;;;18.70;99.90;;;;;;4933778;29;20522;-77
2023/06/10 03:56:36;;;;;;;28.10;16.77;;;18.70;99.90;;;;;;4933198;29;20063;-79
2023/06/10 03:59:01;;;;;;;24.98;16.48;;;18.60;99.90;;;;;;4932531;29;20027;-76
2023/06/10 04:01:28;;;;;;;24.15;16.50;;;18.60;99.90;;;;;;4932838;29;20066;-77
2023/06/10 04:03:55;;;;;;;23.90;15.63;;;18.60;99.90;;;;;;4932468;29;20479;-75
2023/06/10 04:06:22;;;;;;;22.08;15.73;;;18.50;99.90;;;;;;4933934;29;20039;-75
2023/06/10 04:08:48;;;;;;;23.25;14.65;;;18.40;99.90;;;;;;4933388;29;20062;-74
2023/06/10 04:11:14;;;;;;;21.17;14.20;;;18.40;99.90;;;;;;4933508;29;20383;-73
2023/06/10 04:13:40;;;;;;;22.52;15.52;;;18.40;99.90;;;;;;4933861;29;20042;-76
2023/06/10 04:16:06;;;;;;;22.85;14.13;;;18.40;99.90;;;;;;4933693;28;20038;-76
2023/06/10 04:18:32;;;;;;;20.23;13.50;;;18.40;99.90;;;;;;4934242;29;20024;-79
2023/06/10 04:21:05;;;;;;;23.60;13.77;;;18.40;99.90;;;;;;4932213;29;20035;-75
2023/06/10 04:23:32;;;;;;;20.73;13.15;;;18.50;99.90;;;;;;4932882;29;20023;-79
2023/06/10 04:25:59;;;;;;;21.92;14.70;;;18.50;99.90;;;;;;4933307;29;20024;-79
2023/06/10 04:28:25;;;;;;;19.23;13.57;;;18.50;99.90;;;;;;4931778;29;20078;-79
2023/06/10 04:30:51;;;;;;;22.80;13.73;;;18.50;99.90;;;;;;4931638;29;20043;-77
2023/06/10 04:33:17;;;;;;;22.05;13.38;;;18.50;99.90;;;;;;4933356;29;20040;-77
2023/06/10 04:35:43;;;;;;;19.20;12.02;;;18.60;99.90;;;;;;4939499;28;20027;-75
2023/06/10 04:38:12;;;;;;;25.20;13.93;;;18.60;99.90;;;;;;4934607;29;20028;-79
2023/06/10 04:40:38;;;;;;;18.52;12.02;;;18.60;99.90;;;;;;4933421;29;20039;-76
2023/06/10 04:43:04;;;;;;;20.55;11.95;;;18.60;99.90;;;;;;4932098;29;20027;-76
2023/06/10 04:45:31;;;;;;;18.58;11.60;;;18.60;99.90;;;;;;4933443;29;20019;-74
2023/06/10 04:47:58;;;;;;;22.38;11.82;;;18.50;99.90;;;;;;4918241;29;20078;-78
2023/06/10 04:50:26;;;;;;;18.63;12.23;;;18.50;99.90;;;;;;4932211;29;20024;-78
2023/06/10 04:52:52;;;;;;;19.50;11.48;;;18.60;99.90;;;;;;4931538;29;20396;-80
2023/06/10 04:55:18;;;;;;;21.08;12.10;;;18.60;99.90;;;;;;4933396;29;20036;-79
2023/06/10 04:57:44;;;;;;;24.38;12.32;;;18.50;99.90;;;;;;4933024;29;20031;-78
2023/06/10 05:00:10;;;;;;;22.83;12.85;;;18.50;99.90;;;;;;4937197;29;20353;-79
2023/06/10 05:02:36;;;;;;;26.75;13.65;;;18.50;99.90;;;;;;4933240;29;20043;-77
2023/06/10 05:05:02;;;;;;;20.27;13.02;;;18.60;99.90;;;;;;4933148;29;20028;-75
2023/06/10 05:07:28;;;;;;;19.63;12.48;;;18.60;99.90;;;;;;4937056;29;20525;-80
2023/06/10 05:09:53;;;;;;;19.63;11.98;;;18.70;99.90;;;;;;4915748;29;20082;-78
2023/06/10 05:12:19;;;;;;;18.73;12.38;;;18.70;99.90;;;;;;4933086;29;20071;-79
2023/06/10 05:14:46;;;;;;;18.88;12.30;;;18.80;99.90;;;;;;4933001;29;20020;-75
2023/06/10 05:17:12;;;;;;;22.30;13.02;;;18.90;99.90;;;;;;4936442;28;20028;-79
2023/06/10 05:19:38;;;;;;;20.98;12.45;;;19.00;99.90;;;;;;4932831;29;20054;-79
2023/06/10 05:22:04;;;;;;;18.23;12.48;;;19.10;99.90;;;;;;4933403;29;20020;-78
2023/06/10 05:24:30;;;;;;;15.73;11.00;;;19.00;99.90;;;;;;4933204;29;20118;-79
2023/06/10 05:26:56;;;;;;;15.73;10.43;;;19.10;99.90;;;;;;4932722;29;20016;-79
2023/06/10 05:29:22;;;;;;;19.40;11.15;;;19.10;99.90;;;;;;4946107;28;20467;-76
2023/06/10 05:31:48;;;;;;;19.60;10.60;;;19.20;99.90;;;;;;4944657;28;20398;-79
2023/06/10 05:34:14;;;;;;;16.35;11.02;;;19.20;99.90;;;;;;4943312;28;20130;-79
2023/06/10 05:36:39;;;;;;;22.63;10.95;;;19.20;99.90;;;;;;4946380;28;20058;-77
2023/06/10 05:39:06;;;;;;;19.30;10.73;;;19.30;99.90;;;;;;4955285;28;20479;-80
2023/06/10 05:41:31;;;;;;;21.15;13.30;;;19.30;99.90;;;;;;4955179;29;20475;-73
2023/06/10 05:43:57;;;;;;;19.67;11.38;;;19.50;99.90;;;;;;4943382;28;20039;-78
2023/06/10 05:46:23;;;;;;;16.38;10.70;;;19.60;99.90;;;;;;4943042;29;20023;-75
2023/06/10 05:48:49;;;;;;;22.77;11.57;;;19.50;99.90;;;;;;4956263;29;20066;-79
2023/06/10 05:51:15;;;;;;;29.77;19.75;;;19.60;99.90;;;;;;4946803;29;20062;-78
2023/06/10 05:53:41;;;;;;;23.08;13.85;;;19.80;99.90;;;;;;4938231;29;20035;-79
2023/06/10 05:56:06;;;;;;;18.20;11.38;;;19.90;99.90;;;;;;4939026;29;20043;-79
2023/06/10 05:58:33;;;;;;;22.17;15.73;;;19.90;99.90;;;;;;4944314;29;20027;-75
2023/06/10 06:00:58;;;;;;;23.15;17.08;;;19.90;99.90;;;;;;4947829;29;20115;-77
2023/06/10 06:03:24;;;;;;;20.67;11.85;;;20.00;99.90;;;;;;4940931;29;20093;-79
2023/06/10 06:05:50;;;;;;;16.92;11.15;;;20.10;99.90;;;;;;4943852;29;20024;-74
2023/06/10 06:08:18;;;;;;;18.27;10.70;;;20.20;99.90;;;;;;4936841;29;20404;-74
2023/06/10 06:10:45;;;;;;;20.52;13.48;;;20.30;99.90;;;;;;4942850;28;20028;-76
2023/06/10 06:13:11;;;;;;;16.85;10.65;;;20.30;99.90;;;;;;4932369;29;20043;-75
2023/06/10 06:15:37;;;;;;;17.60;9.57;;;20.30;99.90;;;;;;4946628;29;20031;-73
2023/06/10 06:18:03;;;;;;;15.60;9.85;;;20.50;99.90;;;;;;4952931;29;20433;-77
2023/06/10 06:20:29;;;;;;;19.67;11.90;;;20.70;99.90;;;;;;4953968;29;20395;-78
2023/06/10 06:22:54;;;;;;;17.48;10.80;;;20.90;99.90;;;;;;4948358;29;20023;-76
2023/06/10 06:25:20;;;;;;;17.27;10.40;;;20.80;99.90;;;;;;4946876;29;20079;-78
2023/06/10 06:27:46;;;;;;;18.98;10.68;;;21.00;99.90;;;;;;4955571;29;20031;-77
2023/06/10 06:30:12;;;;;;;17.73;9.40;;;21.00;99.90;;;;;;4944014;29;20035;-76
2023/06/10 06:32:38;;;;;;;12.57;8.52;;;21.00;99.90;;;;;;4945070;29;20031;-78
2023/06/10 06:35:07;;;;;;;15.02;8.68;;;21.10;99.90;;;;;;4957365;29;20039;-78
2023/06/10 06:37:33;;;;;;;14.48;8.90;;;21.20;99.90;;;;;;4949326;29;20023;-78
2023/06/10 06:40:20;;;;;;;14.45;9.73;;;21.50;99.90;;;;;;4933479;29;20036;-78
2023/06/10 06:42:45;;;;;;;15.52;8.98;;;21.80;99.90;;;;;;4948430;29;20050;-78
2023/06/10 06:45:21;;;;;;;14.90;9.65;;;22.00;99.90;;;;;;4926794;29;20111;-79
2023/06/10 06:47:47;;;;;;;14.82;9.15;;;23.10;99.90;;;;;;4938204;29;20125;-80
2023/06/10 06:50:13;;;;;;;13.20;7.55;;;22.90;99.90;;;;;;4943614;29;20098;-78
2023/06/10 06:52:39;;;;;;;13.48;8.32;;;23.40;99.90;;;;;;4943517;29;20036;-77
2023/06/10 06:55:05;;;;;;;11.38;7.10;;;23.70;99.90;;;;;;4947593;29;20031;-75
2023/06/10 06:57:31;;;;;;;8.60;5.68;;;23.80;99.90;;;;;;4949474;29;20031;-76
2023/06/10 06:59:57;;;;;;;11.73;6.72;;;23.90;99.90;;;;;;4945072;29;20476;-76
2023/06/10 07:02:23;;;;;;;9.30;6.18;;;24.00;99.90;;;;;;4943439;29;20023;-74
2023/06/10 07:04:49;;;;;;;13.48;6.22;;;24.50;99.90;;;;;;4946644;29;20357;-75
2023/06/10 07:07:15;;;;;;;9.40;5.20;;;24.50;99.90;;;;;;4951536;29;20038;-77
2023/06/10 07:09:41;;;;;;;13.45;5.72;;;24.50;99.90;;;;;;4936132;29;20079;-77
2023/06/10 07:12:08;;;;;;;11.60;5.80;;;24.80;99.90;;;;;;4949029;29;20480;-78
2023/06/10 07:14:34;;;;;;;9.30;5.72;;;24.90;99.90;;;;;;4948500;29;20611;-78
2023/06/10 07:17:00;;;;;;;10.40;6.28;;;24.90;99.90;;;;;;4919202;29;20036;-80
2023/06/10 07:19:25;;;;;;;11.85;4.75;;;25.40;99.90;;;;;;4950978;28;20641;-79
2023/06/10 07:21:51;;;;;;;11.07;5.75;;;25.30;99.90;;;;;;4954517;28;20386;-77
2023/06/10 07:24:17;;;;;;;7.20;5.05;;;25.00;99.90;;;;;;4955241;28;20024;-78
2023/06/10 07:26:43;;;;;;;10.63;5.78;;;25.20;99.90;;;;;;4954804;29;20107;-77
2023/06/10 07:29:08;;;;;;;12.38;6.03;;;25.60;99.90;;;;;;4955067;28;20023;-78
2023/06/10 07:31:34;;;;;;;6.65;5.05;;;25.50;99.90;;;;;;4955082;28;20396;-78
2023/06/10 07:34:00;;;;;;;9.95;5.82;;;25.60;99.90;;;;;;4954691;28;20039;-79
2023/06/10 07:36:29;;;;;;;13.00;5.28;;;25.60;99.90;;;;;;4955314;29;20035;-79
2023/06/10 07:38:56;;;;;;;9.93;5.85;;;;;;;;;;4954768;28;20062;-78
2023/06/10 07:41:25;;;;;;;9.82;5.05;;;26.00;99.90;;;;;;4948358;28;20059;-79
2023/06/10 07:43:54;;;;;;;8.75;5.70;;;26.30;99.90;;;;;;4939006;29;20383;-79
2023/06/10 07:46:23;;;;;;;9.95;4.93;;;26.50;99.90;;;;;;4955173;28;20078;-78
2023/06/10 07:48:49;;;;;;;9.50;5.10;;;26.60;99.90;;;;;;4954626;28;20527;-75
2023/06/10 07:51:16;;;;;;;11.68;6.53;;;26.60;99.90;;;;;;4954266;28;20027;-77
2023/06/10 07:53:42;;;;;;;12.10;6.03;;;25.70;99.90;;;;;;4954516;28;20039;-77
2023/06/10 07:56:08;;;;;;;10.48;5.75;;;26.30;99.90;;;;;;4953739;28;20023;-78
2023/06/10 07:58:34;;;;;;;10.02;5.35;;;26.20;99.90;;;;;;4954220;29;20439;-78
2023/06/10 08:01:00;;;;;;;10.77;5.65;;;26.20;99.90;;;;;;4940808;29;20023;-77
2023/06/10 08:03:25;;;;;;;11.05;5.97;;;26.20;99.90;;;;;;4938135;29;20399;-79
2023/06/10 08:05:51;;;;;;;7.95;5.55;;;25.80;99.90;;;;;;4954113;29;20031;-75
2023/06/10 08:08:17;;;;;;;9.98;4.78;;;25.80;99.90;;;;;;4954417;28;20043;-78
2023/06/10 08:10:43;;;;;;;11.15;4.80;;;25.90;99.90;;;;;;4945924;29;20036;-77
2023/06/10 08:13:09;;;;;;;7.85;4.72;;;25.90;99.90;;;;;;4939101;29;20383;-79
2023/06/10 08:15:35;;;;;;;7.43;4.57;;;26.10;99.90;;;;;;4941617;29;20039;-78
2023/06/10 08:18:00;;;;;;;7.70;5.13;;;26.20;99.90;;;;;;4946991;28;20034;-77
2023/06/10 08:20:26;;;;;;;8.40;4.70;;;25.80;99.90;;;;;;4934365;29;20539;-77
2023/06/10 08:22:52;;;;;;;8.88;4.50;;;25.70;99.90;;;;;;4937348;29;20032;-77
2023/06/10 08:25:19;;;;;;;7.32;5.10;;;25.70;99.90;;;;;;4940627;29;20035;-77
2023/06/10 08:27:45;;;;;;;9.80;5.63;;;26.10;99.90;;;;;;4936572;29;20039;-75
2023/06/10 08:30:13;;;;;;;8.07;4.97;;;26.10;99.90;;;;;;4933576;28;20031;-75
2023/06/10 08:32:41;;;;;;;9.32;5.40;;;26.40;99.90;;;;;;4950130;28;20023;-77
2023/06/10 08:35:08;;;;;;;8.38;5.22;;;26.40;99.90;;;;;;4949818;29;20027;-75
2023/06/10 08:37:34;;;;;;;9.63;5.68;;;26.30;99.90;;;;;;4947801;29;20374;-75
2023/06/10 08:40:01;;;;;;;10.63;5.05;;;26.30;99.90;;;;;;4925301;29;20521;-75
2023/06/10 08:43:10;;;;;;;7.05;4.93;;;26.40;99.90;;;;;;4955029;29;20019;-75
2023/06/10 08:45:37;;;;;;;7.63;4.20;;;26.50;99.90;;;;;;4887786;29;20028;-78
2023/06/10 08:48:09;;;;;;;10.15;5.38;;;26.40;99.90;;;;;;4895851;29;20040;-74
2023/06/10 08:50:38;;;;;;;9.48;4.32;;;26.40;99.90;;;;;;4895994;29;20052;-74
2023/06/10 08:53:07;;;;;;;8.43;4.78;;;26.30;99.90;;;;;;4895765;29;20049;-73
2023/06/10 08:55:41;;;;;;;8.98;4.78;;;26.50;99.90;;;;;;4895991;29;20037;-77
2023/06/10 08:58:08;;;;;;;6.32;4.35;;;26.50;99.90;;;;;;4897148;29;20075;-77
2023/06/10 09:00:35;;;;;;;10.23;4.70;;;26.70;99.90;;;;;;4892832;29;20120;-77
2023/06/10 09:03:11;;;;;;;7.40;4.28;;;27.00;99.90;;;;;;4895191;29;20037;-75
2023/06/10 09:05:41;;;;;;;7.53;4.25;;;27.10;99.90;;;;;;4956087;23;20067;-74
2023/06/10 09:08:09;;;;;;;8.18;4.63;;;27.10;99.90;;;;;;4955134;28;20028;-75
2023/06/10 09:10:35;;;;;;;6.97;4.57;;;26.80;99.90;;;;;;4959090;28;20051;-73
2023/06/10 09:13:01;;;;;;;10.52;4.40;;;26.60;99.90;;;;;;4967299;28;20505;-75
2023/06/10 09:15:27;;;;;;;8.43;3.75;;;26.40;99.90;;;;;;4970215;28;20085;-73
2023/06/10 09:17:53;;;;;;;12.05;5.78;;;26.40;99.90;;;;;;4976110;28;20034;-74
2023/06/10 09:20:19;;;;;;;6.15;4.13;;;26.20;99.90;;;;;;4961947;28;20047;-74
2023/06/10 09:22:44;;;;;;;5.88;3.88;;;26.50;99.90;;;;;;4977273;28;20041;-76
2023/06/10 09:25:12;;;;;;;7.90;4.45;;;26.60;99.90;;;;;;4977849;28;20027;-75
2023/06/10 09:27:50;;;;;;;6.30;3.90;;;26.80;99.90;;;;;;4977553;28;20022;-77
2023/06/10 09:30:25;;;;;;;6.20;3.85;;;27.20;99.90;;;;;;4968295;28;20078;-77
2023/06/10 09:32:52;;;;;;;7.72;4.20;;;27.40;99.90;;;;;;4977279;28;20047;-76
2023/06/10 09:35:19;;;;;;;5.78;4.15;;;27.30;99.90;;;;;;4977242;28;20082;-78
2023/06/10 09:37:45;;;;;;;6.55;3.83;;;27.40;99.90;;;;;;4978420;28;20030;-76
2023/06/10 09:40:12;;;;;;;11.43;4.00;;;27.30;99.90;;;;;;4978675;28;20115;-73
2023/06/10 09:42:39;;;;;;;9.57;4.22;;;26.80;99.90;;;;;;4979074;28;20019;-77
2023/06/10 09:45:07;;;;;;;5.10;3.67;;;26.60;99.90;;;;;;4979457;28;20043;-77
2023/06/10 09:47:32;;;;;;;7.30;3.67;;;26.70;99.90;;;;;;4976986;28;20097;-75
2023/06/10 09:49:59;;;;;;;7.80;3.45;;;26.80;99.90;;;;;;4978490;28;20061;-77
2023/06/10 09:52:27;;;;;;;4.97;3.30;;;27.00;99.90;;;;;;4974147;28;20497;-74
2023/06/10 09:54:54;;;;;;;6.15;3.60;;;27.10;99.90;;;;;;4976780;28;20068;-75
2023/06/10 09:57:21;;;;;;;6.05;3.47;;;27.30;99.90;;;;;;4977243;28;20023;-74
2023/06/10 09:59:47;;;;;;;4.10;3.30;;;27.00;99.90;;;;;;4977466;28;20050;-74
2023/06/10 10:02:16;;;;;;;6.68;3.60;;;27.20;99.90;;;;;;4976819;28;20097;-80
2023/06/10 10:04:43;;;;;;;3.58;2.72;;;26.90;99.90;;;;;;4976169;28;20129;-75
2023/06/10 10:07:13;;;;;;;4.40;3.20;;;26.90;99.90;;;;;;4976961;28;20026;-75
2023/06/10 10:09:41;;;;;;;4.72;3.08;;;27.20;99.90;;;;;;4977296;28;20042;-77
2023/06/10 10:12:10;;;;;;;5.10;3.28;;;27.60;99.90;;;;;;4978037;28;20148;-78
2023/06/10 10:14:36;;;;;;;5.95;3.25;;;27.70;99.90;;;;;;4966946;28;20130;-75
2023/06/10 10:17:07;;;;;;;3.80;2.95;;;27.70;99.90;;;;;;4974223;28;20029;-75
2023/06/10 10:19:42;;;;;;;4.38;2.95;;;27.70;99.90;;;;;;4977762;28;20031;-75
2023/06/10 10:22:10;;;;;;;6.47;3.42;;;27.70;99.90;;;;;;4960147;28;20081;-80
2023/06/10 10:24:48;;;;;;;3.55;2.65;;;27.80;99.90;;;;;;4975198;28;20019;-77
2023/06/10 10:27:20;;;;;;;4.82;2.92;;;26.80;99.90;;;;;;4978276;28;20390;-76
2023/06/10 10:29:52;;;;;;;9.02;3.92;;;27.40;99.90;;;;;;4980109;28;20037;-75
2023/06/10 10:32:20;;;;;;;6.10;3.80;;;27.30;99.90;;;;;;4978297;28;20027;-78
2023/06/10 10:35:08;;;;;;;7.75;3.30;;;27.10;99.90;;;;;;4976180;28;20390;-79
2023/06/10 10:37:36;;;;;;;5.95;3.75;;;27.10;99.90;;;;;;4977440;28;20031;-74
2023/06/10 10:40:03;;;;;;;6.55;3.75;;;27.20;99.90;;;;;;4978331;28;20118;-76
2023/06/10 10:42:30;;;;;;;7.53;4.13;;;27.30;99.90;;;;;;4976523;28;20042;-75
2023/06/10 10:44:56;;;;;;;5.03;3.13;;;27.30;99.90;;;;;;4976642;28;20019;-77
2023/06/10 10:47:27;;;;;;;4.68;2.90;;;27.20;99.90;;;;;;4978142;28;20023;-78
2023/06/10 10:49:58;;;;;;;5.55;3.03;;;27.20;99.90;;;;;;4977563;28;20019;-78
2023/06/10 10:52:25;;;;;;;;;;;27.10;99.90;;;;;;4977099;28;20031;-74
2023/06/10 10:54:53;;;;;;;5.80;3.17;;;27.30;99.90;;;;;;4976112;28;19976;-74
2023/06/10 10:57:23;;;;;;;7.38;3.53;;;27.50;99.90;;;;;;4975907;28;20070;-78
2023/06/10 10:59:51;;;;;;;2.97;2.10;;;27.50;99.90;;;;;;4983412;28;20026;-73
2023/06/10 11:02:35;;;;;;;4.22;3.05;;;27.50;99.90;;;;;;4965494;28;20046;-75
2023/06/10 11:05:02;;;;;;;5.13;3.05;;;27.70;99.90;;;;;;4975549;28;20054;-78
2023/06/10 11:07:31;;;;;;;4.28;3.22;;;27.60;99.90;;;;;;4976737;28;20347;-77
2023/06/10 11:10:10;;;;;;;4.22;3.15;;;27.50;99.90;;;;;;4970803;28;20640;-76
2023/06/10 11:12:45;;;;;;;4.00;3.08;;;27.40;99.90;;;;;;4972986;28;20054;-79
2023/06/10 11:15:11;;;;;;;4.45;2.83;;;26.90;99.90;;;;;;4975305;28;20511;-78
2023/06/10 11:17:37;;;;;;;4.03;2.92;;;26.80;99.90;;;;;;4976655;28;20023;-75
2023/06/10 11:20:11;;;;;;;8.82;3.63;;;26.90;99.90;;;;;;4977645;28;20114;-74
2023/06/10 11:23:00;;;;;;;3.88;2.50;;;27.20;99.90;;;;;;4980458;28;20022;-78
2023/06/10 11:25:39;;;;;;;4.90;3.05;;;27.10;99.90;;;;;;4976815;28;20434;-79
2023/06/10 11:28:19;;;;;;;8.38;3.20;;;26.80;99.90;;;;;;4976103;28;20500;-77
2023/06/10 11:30:45;;;;;;;5.65;3.20;;;26.50;99.90;;;;;;4974618;28;20101;-78
2023/06/10 11:33:16;;;;;;;4.30;2.90;;;26.60;99.90;;;;;;4977828;28;20035;-78
2023/06/10 11:35:43;;;;;;;3.78;2.85;;;26.90;99.90;;;;;;4975729;28;20042;-77
2023/06/10 11:38:09;;;;;;;4.20;2.88;;;27.10;99.90;;;;;;4976130;28;20026;-78
2023/06/10 11:40:37;;;;;;;3.17;2.33;;;27.20;99.90;;;;;;4974978;28;20031;-79
2023/06/10 11:43:04;;;;;;;4.13;2.85;;;27.30;99.90;;;;;;4966374;28;20051;-77
2023/06/10 11:45:30;;;;;;;5.03;2.55;;;27.40;99.90;;;;;;4973869;28;20049;-79
2023/06/10 11:47:57;;;;;;;3.92;2.63;;;27.50;99.90;;;;;;4967176;28;20477;-81
2023/06/10 11:50:33;;;;;;;7.18;2.80;;;27.50;99.90;;;;;;4966256;28;20034;-79
2023/06/10 11:52:59;;;;;;;3.15;2.80;;;27.50;99.90;;;;;;4968771;28;20046;-78
2023/06/10 11:55:46;;;;;;;4.25;2.63;;;27.50;99.90;;;;;;4960050;28;20022;-78
2023/06/10 11:58:17;;;;;;;3.10;2.30;;;27.50;99.90;;;;;;4974039;28;20466;-79
2023/06/10 12:00:46;;;;;;;3.45;2.50;;;27.50;99.90;;;;;;4974155;28;20034;-77
2023/06/10 12:03:12;;;;;;;3.60;2.40;;;27.50;99.90;;;;;;4973660;28;20022;-76
2023/06/10 12:05:38;;;;;;;3.13;2.47;;;27.70;99.90;;;;;;4967299;28;20503;-76
2023/06/10 12:08:11;;;;;;;5.03;2.50;;;27.70;99.90;;;;;;4975923;28;20519;-77
2023/06/10 12:10:41;;;;;;;5.55;2.97;;;27.80;99.90;;;;;;4975796;28;20181;-73
2023/06/10 12:13:09;;;;;;;3.90;2.53;;;27.80;99.90;;;;;;4963642;28;20158;-76
2023/06/10 12:15:35;;;;;;;3.53;2.40;;;27.70;99.90;;;;;;4974750;28;20023;-76
2023/06/10 12:18:02;;;;;;;2.60;1.90;;;27.70;99.90;;;;;;4975426;28;20054;-74
2023/06/10 12:20:31;;;;;;;3.90;2.10;;;27.80;99.90;;;;;;4975324;28;20026;-78
2023/06/10 12:22:57;;;;;;;3.35;2.28;;;27.80;99.90;;;;;;4974649;28;20058;-74
2023/06/10 12:25:28;;;;;;;3.80;2.20;;;27.80;99.90;;;;;;4975057;28;20058;-75
2023/06/10 12:27:56;;;;;;;7.47;2.55;;;27.70;99.90;;;;;;4976524;28;20043;-77
2023/06/10 12:30:24;;;;;;;3.90;2.85;;;27.70;99.90;;;;;;4976086;28;20035;-76
2023/06/10 12:32:52;;;;;;;3.30;2.03;;;27.70;99.90;;;;;;4975733;28;20023;-75
2023/06/10 12:35:20;;;;;;;3.75;2.30;;;28.00;99.90;;;;;;4974975;28;20073;-74
2023/06/10 12:37:56;;;;;;;3.53;2.25;;;28.00;99.90;;;;;;4963207;28;20496;-77
2023/06/10 12:40:27;;;;;;;3.72;2.60;;;28.00;99.90;;;;;;4975861;28;20042;-73
2023/06/10 12:42:54;;;;;;;3.55;2.28;;;27.90;99.90;;;;;;4973174;28;20037;-73